createdAt,value
2019-02-19T09:59:50.924Z,5.22
2019-02-19T10:02:22.872Z,5.20
2019-02-19T10:04:56.684Z,4.47
2019-02-19T10:07:28.045Z,4.30
2019-02-19T10:09:59.794Z,5.03
2019-02-19T10:12:31.229Z,4.42
2019-02-19T10:15:02.795Z,4.25
2019-02-19T10:17:35.352Z,4.10
2019-02-19T10:20:13.389Z,4.83
2019-02-19T10:22:45.942Z,4.67
2019-02-19T10:27:49.386Z,4.50
2019-02-19T10:30:21.304Z,4.47
2019-02-19T10:32:54.281Z,4.42
2019-02-19T10:35:25.934Z,4.28
2019-02-19T10:38:09.560Z,4.53
2019-02-19T10:40:41.233Z,4.28
2019-02-19T10:43:12.659Z,3.65
2019-02-19T10:45:46.182Z,4.60
2019-02-19T10:48:20.747Z,4.80
2019-02-19T10:50:52.518Z,4.30
2019-02-19T10:53:24.091Z,4.03
2019-02-19T10:55:59.514Z,4.62
2019-02-19T10:58:32.527Z,4.35
2019-02-19T11:01:04.385Z,4.53
2019-02-19T11:03:42.562Z,4.47
2019-02-19T11:06:15.969Z,3.52
2019-02-19T11:09:00.707Z,3.75
2019-02-19T11:11:33.372Z,3.87
2019-02-19T11:14:04.790Z,4.85
2019-02-19T11:16:36.379Z,4.50
2019-02-19T11:19:07.876Z,4.00
2019-02-19T11:21:39.425Z,4.45
2019-02-19T11:24:10.734Z,4.15
2019-02-19T11:26:42.092Z,4.60
2019-02-19T11:29:15.076Z,4.25
2019-02-19T11:31:47.245Z,4.17
2019-02-19T11:34:21.326Z,4.45
2019-02-19T11:36:54.601Z,4.40
2019-02-19T11:39:26.235Z,3.77
2019-02-19T11:41:59.401Z,4.12
2019-02-19T11:44:33.453Z,4.55
2019-02-19T11:47:04.954Z,4.05
2019-02-19T11:49:38.423Z,5.37
2019-02-19T11:52:10.420Z,5.12
2019-02-19T11:54:44.507Z,4.90
2019-02-19T11:57:18.039Z,5.08
2019-02-19T11:59:51.528Z,6.15
2019-02-19T12:02:23.542Z,4.87
2019-02-19T12:04:59.956Z,5.70
2019-02-19T12:07:31.426Z,5.28
2019-02-19T12:10:02.789Z,4.60
2019-02-19T12:12:34.064Z,4.87
2019-02-19T12:15:12.681Z,5.05
2019-02-19T12:17:45.570Z,5.00
2019-02-19T12:20:17.171Z,4.75
2019-02-19T12:22:50.356Z,4.17
2019-02-19T12:25:24.590Z,5.20
2019-02-19T12:27:57.713Z,4.65
2019-02-19T12:30:29.358Z,4.12
2019-02-19T12:33:03.973Z,5.00
2019-02-19T12:35:38.434Z,4.20
2019-02-19T12:38:09.984Z,4.47
2019-02-19T12:40:43.061Z,4.42
2019-02-19T12:43:14.573Z,4.25
2019-02-19T12:45:56.300Z,4.03
2019-02-19T12:48:29.628Z,4.60
2019-02-19T12:51:01.212Z,4.40
2019-02-19T12:53:36.819Z,3.80
2019-02-19T12:56:08.420Z,3.47
2019-02-19T12:58:42.287Z,4.42
2019-02-19T13:03:54.272Z,4.50
2019-02-19T13:06:26.424Z,4.20
2019-02-19T13:09:04.273Z,4.33
2019-02-19T13:11:42.327Z,3.77
2019-02-19T13:14:17.433Z,4.65
2019-02-19T13:16:50.181Z,5.03
2019-02-19T13:19:25.681Z,4.58
2019-02-19T13:21:57.683Z,5.10
2019-02-19T13:24:43.068Z,4.87
2019-02-19T13:27:19.804Z,4.75
2019-02-19T13:29:51.222Z,5.20
2019-02-19T13:32:42.540Z,5.80
2019-02-19T13:35:16.090Z,6.15
2019-02-19T13:37:50.344Z,6.45
2019-02-19T13:40:29.748Z,5.37
2019-02-19T13:43:08.239Z,6.97
2019-02-19T13:45:45.462Z,6.92
2019-02-19T13:48:21.592Z,6.80
2019-02-19T13:50:52.939Z,7.95
2019-02-19T13:53:26.144Z,7.10
2019-02-19T13:56:00.512Z,6.58
2019-02-19T13:58:31.902Z,7.90
2019-02-19T14:01:03.823Z,6.53
2019-02-19T14:03:35.399Z,6.53
2019-02-19T14:06:06.865Z,7.17
2019-02-19T14:08:38.134Z,7.12
2019-02-19T14:11:09.518Z,6.62
2019-02-19T14:13:42.883Z,6.15
2019-02-19T14:16:15.859Z,6.35
2019-02-19T14:18:56.431Z,7.60
2019-02-19T14:21:33.717Z,7.35
2019-02-19T14:24:23.177Z,9.03
2019-02-19T14:27:14.801Z,7.08
2019-02-19T14:30:00.315Z,6.42
2019-02-19T14:32:49.898Z,5.65
2019-02-19T14:35:39.240Z,4.95
2019-02-19T14:38:15.171Z,5.12
2019-02-19T14:41:05.177Z,5.10
2019-02-19T14:43:43.899Z,4.53
2019-02-19T14:46:22.816Z,4.85
2019-02-19T14:49:04.786Z,5.17
2019-02-19T14:51:40.675Z,4.65
2019-02-19T14:54:30.213Z,5.78
2019-02-19T14:57:21.096Z,6.15
2019-02-19T14:59:54.253Z,5.80
2019-02-19T15:02:29.504Z,7.03
2019-02-19T15:07:43.448Z,7.50
2019-02-19T15:10:16.447Z,6.67
2019-02-19T15:13:06.001Z,6.97
2019-02-19T15:15:57.154Z,6.20
2019-02-19T15:18:46.894Z,6.50
2019-02-19T15:21:28.902Z,8.03
2019-02-19T15:24:10.952Z,7.53
2019-02-19T15:26:46.619Z,7.60
2019-02-19T15:29:28.629Z,8.08
2019-02-19T15:32:06.447Z,8.08
2019-02-19T15:34:41.894Z,7.50
2019-02-19T15:37:15.309Z,8.55
2019-02-19T15:40:04.429Z,7.57
2019-02-19T15:42:46.463Z,7.80
2019-02-19T15:45:31.413Z,8.50
2019-02-19T15:48:04.589Z,6.17
2019-02-19T15:50:53.691Z,6.70
2019-02-19T15:53:36.015Z,6.75
2019-02-19T15:56:27.281Z,6.85
2019-02-19T15:59:00.393Z,6.53
2019-02-19T16:01:45.609Z,6.62
2019-02-19T16:04:37.215Z,7.35
2019-02-19T16:07:19.601Z,7.55
2019-02-19T16:09:52.467Z,7.90
2019-02-19T16:12:27.650Z,9.83
2019-02-19T16:18:00.167Z,8.63
2019-02-19T16:20:38.952Z,8.83
2019-02-19T16:23:11.919Z,7.70
2019-02-19T16:25:47.725Z,9.48
2019-02-19T16:28:23.626Z,8.10
2019-02-19T16:30:56.720Z,9.85
2019-02-19T16:36:10.575Z,8.38
2019-02-19T16:38:45.127Z,8.70
2019-02-19T16:41:21.170Z,9.08
2019-02-19T16:44:07.618Z,8.95
2019-02-19T16:46:56.531Z,8.25
2019-02-19T16:49:47.347Z,8.60
2019-02-19T16:52:20.360Z,8.85
2019-02-19T16:57:28.857Z,8.38
2019-02-19T17:00:08.042Z,9.08
2019-02-19T17:02:42.508Z,9.58
2019-02-19T17:08:04.308Z,10.28
2019-02-19T17:10:40.098Z,9.75
2019-02-19T17:13:25.041Z,9.20
2019-02-19T17:16:30.545Z,8.23
2019-02-19T17:19:07.812Z,7.85
2019-02-19T17:21:46.440Z,7.40
2019-02-19T17:24:22.216Z,7.70
2019-02-19T17:26:58.475Z,7.30
2019-02-19T17:29:36.962Z,7.62
2019-02-19T17:32:10.020Z,7.17
2019-02-19T17:37:34.276Z,6.75
2019-02-19T17:40:18.788Z,7.47
2019-02-19T17:42:57.386Z,8.28
2019-02-19T17:45:42.436Z,7.58
2019-02-19T17:48:18.269Z,7.35
2019-02-19T17:51:09.440Z,7.03
2019-02-19T17:53:54.348Z,6.20
2019-02-19T17:56:29.877Z,7.17
2019-02-19T17:59:09.879Z,7.40
2019-02-19T18:01:46.123Z,6.65
2019-02-19T18:04:18.926Z,6.40
2019-02-19T18:06:51.724Z,6.37
2019-02-19T18:12:09.210Z,6.42
2019-02-19T18:15:00.009Z,6.97
2019-02-19T18:17:33.207Z,6.90
2019-02-19T18:20:07.849Z,6.78
2019-02-19T18:22:45.227Z,7.20
2019-02-19T18:25:17.079Z,7.45
2019-02-19T18:27:51.750Z,7.25
2019-02-19T18:30:23.163Z,7.78
2019-02-19T18:32:54.809Z,7.12
2019-02-19T18:35:26.431Z,7.03
2019-02-19T18:37:57.816Z,7.17
2019-02-19T18:40:29.468Z,8.38
2019-02-19T18:43:01.024Z,8.63
2019-02-19T18:45:32.983Z,7.47
2019-02-19T18:48:04.232Z,8.75
2019-02-19T18:50:36.101Z,15.40
2019-02-19T18:53:07.962Z,11.80
2019-02-19T18:55:39.822Z,9.55
2019-02-19T18:58:11.482Z,8.30
2019-02-19T19:00:43.053Z,7.90
2019-02-19T19:03:14.261Z,6.30
2019-02-19T19:05:45.901Z,6.70
2019-02-19T19:08:17.249Z,9.23
2019-02-19T19:10:48.830Z,5.05
2019-02-19T19:13:20.408Z,7.35
2019-02-19T19:16:11.804Z,6.80
2019-02-19T19:18:46.120Z,6.25
2019-02-19T19:21:17.880Z,5.45
2019-02-19T19:23:49.443Z,6.15
2019-02-19T19:26:21.085Z,6.03
2019-02-19T19:28:53.260Z,6.23
2019-02-19T19:31:32.958Z,7.28
2019-02-19T19:34:05.172Z,6.67
2019-02-19T19:36:36.435Z,7.30
2019-02-19T19:39:07.595Z,6.60
2019-02-19T19:41:40.395Z,6.33
2019-02-19T19:44:11.644Z,7.03
2019-02-19T19:46:42.961Z,5.85
2019-02-19T19:49:14.206Z,7.08
2019-02-19T19:51:45.402Z,6.87
2019-02-19T19:54:16.941Z,6.60
2019-02-19T19:56:48.340Z,7.00
2019-02-19T19:59:34.993Z,8.75
2019-02-19T20:02:06.165Z,7.80
2019-02-19T20:04:37.458Z,6.35
2019-02-19T20:07:08.886Z,6.72
2019-02-19T20:09:40.129Z,6.12
2019-02-19T20:12:11.793Z,7.08
2019-02-19T20:14:43.337Z,8.35
2019-02-19T20:17:15.099Z,7.15
2019-02-19T20:19:46.616Z,6.60
2019-02-19T20:22:18.104Z,7.50
2019-02-19T20:24:49.657Z,7.28
2019-02-19T20:27:21.629Z,8.98
2019-02-19T20:29:53.304Z,9.10
2019-02-19T20:32:24.833Z,7.30
2019-02-19T20:34:56.895Z,8.48
2019-02-19T20:37:28.467Z,8.00
2019-02-19T20:40:00.976Z,8.53
2019-02-19T20:42:32.316Z,8.15
2019-02-19T20:45:05.057Z,8.35
2019-02-19T20:50:10.777Z,9.58
2019-02-19T20:52:41.975Z,9.30
2019-02-19T20:55:13.726Z,8.48
2019-02-19T20:57:45.482Z,7.42
2019-02-19T21:00:20.025Z,9.98
2019-02-19T21:02:51.281Z,7.97
2019-02-19T21:05:22.556Z,8.30
2019-02-19T21:08:06.345Z,9.78
2019-02-19T21:10:37.944Z,9.35
2019-02-19T21:13:09.240Z,9.63
2019-02-19T21:15:41.003Z,9.43
2019-02-19T21:18:13.742Z,9.50
2019-02-19T21:20:45.334Z,10.72
2019-02-19T21:23:17.031Z,10.77
2019-02-19T21:25:48.714Z,11.25
2019-02-19T21:28:19.992Z,9.03
2019-02-19T21:30:53.323Z,9.45
2019-02-19T21:33:24.529Z,9.70
2019-02-19T21:35:57.850Z,9.20
2019-02-19T21:38:29.122Z,9.63
2019-02-19T21:41:00.735Z,11.38
2019-02-19T21:43:32.388Z,11.75
2019-02-19T21:46:22.367Z,11.95
2019-02-19T21:48:54.144Z,10.43
2019-02-19T21:51:25.892Z,9.68
2019-02-19T21:53:57.552Z,10.75
2019-02-19T21:56:38.123Z,10.15
2019-02-19T21:59:09.875Z,9.98
2019-02-19T22:01:43.695Z,9.18
2019-02-19T22:04:15.329Z,8.38
2019-02-19T22:06:46.994Z,8.23
2019-02-19T22:09:18.853Z,7.22
2019-02-19T22:11:50.378Z,7.70
2019-02-19T22:14:21.612Z,7.65
2019-02-19T22:16:55.073Z,7.62
2019-02-19T22:19:26.319Z,7.55
2019-02-19T22:22:03.676Z,7.45
2019-02-19T22:24:37.077Z,6.53
2019-02-19T22:27:08.297Z,7.55
2019-02-19T22:29:40.899Z,6.62
2019-02-19T22:32:13.790Z,6.70
2019-02-19T22:34:45.550Z,6.90
2019-02-19T22:37:17.203Z,6.90
2019-02-19T22:40:05.774Z,7.00
2019-02-19T22:42:38.332Z,6.00
2019-02-19T22:45:10.606Z,5.40
2019-02-19T22:47:42.158Z,6.25
2019-02-19T22:50:13.705Z,6.58
2019-02-19T22:52:45.364Z,6.17
2019-02-19T22:55:27.473Z,6.08
2019-02-19T22:57:59.087Z,5.22
2019-02-19T23:00:49.316Z,5.47
2019-02-19T23:03:41.657Z,5.47
2019-02-19T23:06:12.959Z,5.58
2019-02-19T23:08:44.328Z,5.50
2019-02-19T23:11:15.683Z,5.00
2019-02-19T23:13:47.024Z,5.40
2019-02-19T23:16:30.767Z,4.97
2019-02-19T23:19:02.251Z,4.75
2019-02-19T23:21:33.909Z,4.92
2019-02-19T23:24:05.658Z,4.72
2019-02-19T23:26:47.905Z,5.92
2019-02-19T23:29:19.650Z,5.40
2019-02-19T23:31:50.951Z,5.33
2019-02-19T23:34:24.871Z,5.33
2019-02-19T23:36:57.759Z,5.42
2019-02-19T23:41:59.638Z,5.95
2019-02-19T23:44:31.191Z,6.28
2019-02-19T23:47:02.879Z,6.40
2019-02-19T23:49:34.126Z,6.03
2019-02-19T23:52:08.158Z,7.20
2019-02-19T23:54:40.277Z,5.75
2019-02-19T23:57:11.928Z,6.65
2019-02-19T23:59:48.120Z,5.67
